Time,TemperatureF,DewpointF,PressureIn,WindDirection,WindDirectionDegrees,WindSpeedMPH,WindSpeedGustMPH,Humidity,HourlyPrecipIn,Conditions,Clouds,dailyrainin,SoftwareType,DateUTC
2013-09-23 00:02:00,57.2,51.8,29.99,SSW,203,2.2,2.9,82,0.00,,,0.00,WUHU216HW,2013-09-23 07:02:00,
2013-09-23 00:07:00,57.1,51.6,30.00,SSW,203,1.8,2.9,82,0.00,,,0.00,WUHU216HW,2013-09-23 07:07:00,
2013-09-23 00:12:00,56.9,51.4,30.00,WSW,248,1.6,2.2,82,0.00,,,0.00,WUHU216HW,2013-09-23 07:12:00,
2013-09-23 00:17:00,56.9,51.4,29.99,SW,225,1.8,2.2,82,0.00,,,0.00,WUHU216HW,2013-09-23 07:17:00,
2013-09-23 00:22:00,56.9,51.4,29.99,SSE,158,1.3,2.2,82,0.00,,,0.00,WUHU216HW,2013-09-23 07:22:00,
2013-09-23 00:27:00,56.7,51.2,29.99,SW,225,0.4,2.0,82,0.00,,,0.00,WUHU216HW,2013-09-23 07:27:00,
2013-09-23 00:32:00,56.5,51.0,29.99,WSW,248,0.0,1.8,82,0.00,,,0.00,WUHU216HW,2013-09-23 07:32:00,
2013-09-23 00:37:00,56.5,50.8,29.99,SSW,203,0.4,1.1,81,0.00,,,0.00,WUHU216HW,2013-09-23 07:37:00,
2013-09-23 00:42:00,56.3,50.6,29.99,SSW,203,0.0,0.4,81,0.00,,,0.00,WUHU216HW,2013-09-23 07:42:00,
2013-09-23 00:47:00,56.2,50.4,29.99,SSW,203,0.0,0.7,81,0.00,,,0.00,WUHU216HW,2013-09-23 07:47:00,
2013-09-23 00:52:00,56.2,50.4,29.99,SSW,203,0.0,0.7,81,0.00,,,0.00,WUHU216HW,2013-09-23 07:52:00,
2013-09-23 00:57:00,56.0,50.2,29.99,SSW,203,0.0,0.0,81,0.00,,,0.00,WUHU216HW,2013-09-23 07:57:00,
2013-09-23 01:02:00,55.8,50.1,29.99,South,180,0.0,0.0,81,0.00,,,0.00,WUHU216HW,2013-09-23 08:02:00,
2013-09-23 01:07:00,55.6,50.1,29.99,SSE,158,0.4,0.4,82,0.00,,,0.00,WUHU216HW,2013-09-23 08:07:00,
2013-09-23 01:12:00,55.4,50.0,29.99,SSE,158,0.4,1.1,82,0.00,,,0.00,WUHU216HW,2013-09-23 08:12:00,
2013-09-23 01:17:00,55.4,50.0,29.99,SSE,158,0.0,1.1,82,0.00,,,0.00,WUHU216HW,2013-09-23 08:17:00,
2013-09-23 01:22:00,55.3,49.8,29.99,SSE,158,0.0,1.1,82,0.00,,,0.00,WUHU216HW,2013-09-23 08:22:00,
2013-09-23 01:27:00,55.1,49.7,29.99,SSE,158,0.0,1.1,82,0.00,,,0.00,WUHU216HW,2013-09-23 08:27:00,
2013-09-23 01:32:00,55.1,49.7,29.99,SSE,158,0.0,0.0,82,0.00,,,0.00,WUHU216HW,2013-09-23 08:32:00,
2013-09-23 01:37:00,54.9,49.5,29.99,SSE,158,0.0,0.0,82,0.00,,,0.00,WUHU216HW,2013-09-23 08:37:00,
2013-09-23 01:42:00,54.7,49.3,29.99,SSE,158,0.0,0.0,82,0.00,,,0.00,WUHU216HW,2013-09-23 08:42:00,
2013-09-23 01:47:00,54.7,49.3,29.99,SSE,158,1.1,1.1,82,0.00,,,0.00,WUHU216HW,2013-09-23 08:47:00,
2013-09-23 01:52:00,54.5,49.1,30.00,ESE,113,0.7,1.8,82,0.00,,,0.00,WUHU216HW,2013-09-23 08:52:00,
2013-09-23 01:57:00,54.4,49.0,30.00,ESE,113,0.0,1.8,82,0.00,,,0.00,WUHU216HW,2013-09-23 08:57:00,
2013-09-23 02:02:00,54.4,49.0,30.00,East,90,1.1,1.6,82,0.00,,,0.00,WUHU216HW,2013-09-23 09:02:00,
2013-09-23 02:07:00,54.4,49.0,30.00,East,90,0.7,1.6,82,0.00,,,0.00,WUHU216HW,2013-09-23 09:07:00,
2013-09-23 02:12:00,54.2,48.8,29.99,East,90,1.1,1.3,82,0.00,,,0.00,WUHU216HW,2013-09-23 09:12:00,
2013-09-23 02:17:00,54.2,48.8,29.99,East,90,0.0,1.3,82,0.00,,,0.00,WUHU216HW,2013-09-23 09:17:00,
2013-09-23 02:22:00,54.0,48.6,29.99,East,90,0.0,1.1,82,0.00,,,0.00,WUHU216HW,2013-09-23 09:22:00,
2013-09-23 02:27:00,54.0,48.6,29.99,East,90,0.4,0.4,82,0.00,,,0.00,WUHU216HW,2013-09-23 09:27:00,
2013-09-23 02:32:00,53.8,48.5,29.99,East,90,0.7,0.9,82,0.00,,,0.00,WUHU216HW,2013-09-23 09:32:00,
2013-09-23 02:37:00,53.6,48.3,29.99,East,90,1.1,1.1,82,0.00,,,0.00,WUHU216HW,2013-09-23 09:37:00,
2013-09-23 02:42:00,53.6,48.3,29.99,East,90,0.4,1.1,82,0.00,,,0.00,WUHU216HW,2013-09-23 09:42:00,
2013-09-23 02:47:00,53.6,48.3,29.99,East,90,0.7,1.1,82,0.00,,,0.00,WUHU216HW,2013-09-23 09:47:00,
2013-09-23 02:52:00,53.5,48.2,29.99,East,90,0.0,0.9,82,0.00,,,0.00,WUHU216HW,2013-09-23 09:52:00,
2013-09-23 02:57:00,53.3,48.0,29.99,East,90,1.1,1.1,82,0.00,,,0.00,WUHU216HW,2013-09-23 09:57:00,
2013-09-23 03:02:00,53.3,48.0,29.99,East,90,1.1,1.1,82,0.00,,,0.00,WUHU216HW,2013-09-23 10:02:00,
2013-09-23 03:07:00,53.3,48.0,29.99,East,90,0.7,1.1,82,0.00,,,0.00,WUHU216HW,2013-09-23 10:07:00,
2013-09-23 03:12:00,53.1,47.8,29.99,ESE,113,0.9,1.6,82,0.00,,,0.00,WUHU216HW,2013-09-23 10:12:00,
2013-09-23 03:17:00,52.9,47.6,29.99,ESE,113,0.9,1.6,82,0.00,,,0.00,WUHU216HW,2013-09-23 10:17:00,
2013-09-23 03:22:00,52.9,47.6,29.99,SE,135,0.7,1.1,82,0.00,,,0.00,WUHU216HW,2013-09-23 10:22:00,
2013-09-23 03:27:00,52.9,47.6,29.99,SE,135,0.4,1.3,82,0.00,,,0.00,WUHU216HW,2013-09-23 10:27:00,
2013-09-23 03:32:00,52.9,47.9,29.99,SE,135,1.8,2.2,83,0.00,,,0.00,WUHU216HW,2013-09-23 10:32:00,
2013-09-23 03:37:00,52.7,47.7,29.99,ESE,113,2.5,2.7,83,0.00,,,0.00,WUHU216HW,2013-09-23 10:37:00,
2013-09-23 03:42:00,52.9,47.9,29.99,SSE,158,1.8,2.7,83,0.00,,,0.00,WUHU216HW,2013-09-23 10:42:00,
2013-09-23 03:47:00,52.9,47.9,29.98,ESE,113,0.2,2.5,83,0.00,,,0.00,WUHU216HW,2013-09-23 10:47:00,
2013-09-23 03:52:00,52.9,47.9,29.98,ESE,113,0.7,1.8,83,0.00,,,0.00,WUHU216HW,2013-09-23 10:52:00,
2013-09-23 03:57:00,52.7,48.1,29.98,ESE,113,0.9,2.0,84,0.00,,,0.00,WUHU216HW,2013-09-23 10:57:00,
2013-09-23 04:02:00,52.7,48.1,29.98,ESE,113,0.7,2.0,84,0.00,,,0.00,WUHU216HW,2013-09-23 11:02:00,
2013-09-23 04:07:00,52.7,48.1,29.97,ESE,113,0.0,1.8,84,0.00,,,0.00,WUHU216HW,2013-09-23 11:07:00,
2013-09-23 04:12:00,52.7,48.1,29.97,ESE,113,1.1,1.1,84,0.00,,,0.00,WUHU216HW,2013-09-23 11:12:00,
2013-09-23 04:17:00,52.6,47.9,29.97,ESE,113,0.0,1.1,84,0.00,,,0.00,WUHU216HW,2013-09-23 11:17:00,
2013-09-23 04:22:00,52.6,47.9,29.97,ESE,113,0.7,1.1,84,0.00,,,0.00,WUHU216HW,2013-09-23 11:22:00,
2013-09-23 04:27:00,52.6,47.9,29.97,ESE,113,0.0,0.7,84,0.00,,,0.00,WUHU216HW,2013-09-23 11:27:00,
2013-09-23 04:32:00,52.6,47.9,29.97,ESE,113,0.0,0.9,84,0.00,,,0.00,WUHU216HW,2013-09-23 11:32:00,
2013-09-23 04:37:00,52.4,47.7,29.97,ESE,113,0.7,1.1,84,0.00,,,0.00,WUHU216HW,2013-09-23 11:37:00,
2013-09-23 04:42:00,52.4,47.7,29.96,ESE,113,0.4,1.1,84,0.00,,,0.00,WUHU216HW,2013-09-23 11:42:00,
2013-09-23 04:47:00,52.2,47.5,29.96,ESE,113,0.7,1.1,84,0.00,,,0.00,WUHU216HW,2013-09-23 11:47:00,
2013-09-23 04:52:00,52.2,47.5,29.96,ESE,113,1.3,1.3,84,0.00,,,0.00,WUHU216HW,2013-09-23 11:52:00,
2013-09-23 04:57:00,52.2,47.5,29.96,ESE,113,0.7,1.3,84,0.00,,,0.00,WUHU216HW,2013-09-23 11:57:00,
2013-09-23 05:02:00,52.0,47.4,29.96,ESE,113,1.3,1.3,84,0.00,,,0.00,WUHU216HW,2013-09-23 12:02:00,
2013-09-23 05:07:00,52.0,47.4,29.96,ESE,113,0.4,1.3,84,0.00,,,0.00,WUHU216HW,2013-09-23 12:07:00,
2013-09-23 05:12:00,51.8,47.2,29.96,ESE,113,0.0,1.3,84,0.00,,,0.00,WUHU216HW,2013-09-23 12:12:00,
2013-09-23 05:17:00,51.7,47.0,29.96,ESE,113,0.7,1.8,84,0.00,,,0.00,WUHU216HW,2013-09-23 12:17:00,
2013-09-23 05:22:00,51.7,47.0,29.97,ESE,113,1.1,1.8,84,0.00,,,0.00,WUHU216HW,2013-09-23 12:22:00,
2013-09-23 05:27:00,51.5,46.8,29.97,ESE,113,0.4,1.6,84,0.00,,,0.00,WUHU216HW,2013-09-23 12:27:00,
2013-09-23 05:32:00,51.5,46.8,29.97,ESE,113,0.4,1.6,84,0.00,,,0.00,WUHU216HW,2013-09-23 12:32:00,
2013-09-23 05:37:00,51.1,46.5,29.97,ESE,113,0.4,0.9,84,0.00,,,0.00,WUHU216HW,2013-09-23 12:37:00,
2013-09-23 05:42:00,51.1,46.5,29.97,ESE,113,0.0,0.9,84,0.00,,,0.00,WUHU216HW,2013-09-23 12:42:00,
2013-09-23 05:47:00,51.1,46.5,29.97,ESE,113,0.0,0.4,84,0.00,,,0.00,WUHU216HW,2013-09-23 12:47:00,
2013-09-23 05:52:00,51.1,46.5,29.97,ESE,113,0.9,0.9,84,0.00,,,0.00,WUHU216HW,2013-09-23 12:52:00,
2013-09-23 05:57:00,50.9,46.3,29.98,ESE,113,0.0,1.1,84,0.00,,,0.00,WUHU216HW,2013-09-23 12:57:00,
2013-09-23 06:02:00,50.9,46.3,29.98,ESE,113,0.0,1.1,84,0.00,,,0.00,WUHU216HW,2013-09-23 13:02:00,
2013-09-23 06:07:00,50.8,46.1,29.98,ESE,113,0.0,0.0,84,0.00,,,0.00,WUHU216HW,2013-09-23 13:07:00,
2013-09-23 06:12:00,50.8,46.4,29.98,ESE,113,0.0,0.0,85,0.00,,,0.00,WUHU216HW,2013-09-23 13:12:00,
2013-09-23 06:17:00,50.8,46.4,29.98,ESE,113,0.0,0.0,85,0.00,,,0.00,WUHU216HW,2013-09-23 13:17:00,
2013-09-23 06:22:00,50.8,46.4,29.98,ESE,113,1.1,1.1,85,0.00,,,0.00,WUHU216HW,2013-09-23 13:22:00,
2013-09-23 06:27:00,50.6,46.2,29.99,ESE,113,0.9,1.1,85,0.00,,,0.00,WUHU216HW,2013-09-23 13:27:00,
2013-09-23 06:32:00,50.6,46.2,29.99,ESE,113,0.7,1.1,85,0.00,,,0.00,WUHU216HW,2013-09-23 13:32:00,
2013-09-23 06:37:00,50.6,46.2,29.99,ESE,113,0.2,1.6,85,0.00,,,0.00,WUHU216HW,2013-09-23 13:37:00,
2013-09-23 06:42:00,50.4,46.0,29.99,ESE,113,0.4,1.6,85,0.00,,,0.00,WUHU216HW,2013-09-23 13:42:00,
2013-09-23 06:47:00,50.2,45.8,29.99,ESE,113,0.0,1.1,85,0.00,,,0.00,WUHU216HW,2013-09-23 13:47:00,
2013-09-23 06:52:00,50.0,45.6,29.99,ESE,113,0.0,0.4,85,0.00,,,0.00,WUHU216HW,2013-09-23 13:52:00,
2013-09-23 06:57:00,50.0,45.6,29.99,ESE,113,1.1,1.1,85,0.00,,,0.00,WUHU216HW,2013-09-23 13:57:00,
2013-09-23 07:02:00,50.0,45.6,29.99,ESE,113,1.8,1.8,85,0.00,,,0.00,WUHU216HW,2013-09-23 14:02:00,
2013-09-23 07:07:00,50.0,45.6,29.99,North,0,0.0,1.8,85,0.00,,,0.00,WUHU216HW,2013-09-23 14:07:00,
2013-09-23 07:12:00,50.0,45.9,29.99,ESE,113,0.9,1.8,86,0.00,,,0.00,WUHU216HW,2013-09-23 14:12:00,
2013-09-23 07:17:00,50.0,45.9,29.99,ESE,113,2.9,2.9,86,0.00,,,0.00,WUHU216HW,2013-09-23 14:17:00,
2013-09-23 07:22:00,50.2,46.1,29.99,ESE,113,2.5,2.9,86,0.00,,,0.00,WUHU216HW,2013-09-23 14:22:00,
2013-09-23 07:27:00,50.6,46.4,29.99,ESE,113,1.1,2.9,86,0.00,,,0.00,WUHU216HW,2013-09-23 14:27:00,
2013-09-23 07:32:00,50.8,46.6,29.99,ESE,113,1.3,2.5,86,0.00,,,0.00,WUHU216HW,2013-09-23 14:32:00,
2013-09-23 07:37:00,51.3,47.5,29.99,ESE,113,2.0,2.0,87,0.00,,,0.00,WUHU216HW,2013-09-23 14:37:00,
2013-09-23 07:42:00,51.7,47.9,29.99,ESE,113,2.5,3.4,87,0.00,,,0.00,WUHU216HW,2013-09-23 14:42:00,
2013-09-23 07:47:00,52.2,48.4,29.99,ESE,113,0.7,3.4,87,0.00,,,0.00,WUHU216HW,2013-09-23 14:47:00,
2013-09-23 07:52:00,52.6,48.8,29.99,ESE,113,1.1,2.7,87,0.00,,,0.00,WUHU216HW,2013-09-23 14:52:00,
2013-09-23 07:57:00,52.9,49.4,29.99,East,90,0.7,2.0,88,0.00,,,0.00,WUHU216HW,2013-09-23 14:57:00,
2013-09-23 08:02:00,53.6,50.1,29.99,East,90,0.4,1.6,88,0.00,,,0.00,WUHU216HW,2013-09-23 15:02:00,
2013-09-23 08:07:00,54.0,50.5,29.99,East,90,0.4,0.7,88,0.00,,,0.00,WUHU216HW,2013-09-23 15:07:00,
2013-09-23 08:12:00,54.4,50.6,30.00,East,90,1.1,1.8,87,0.00,,,0.00,WUHU216HW,2013-09-23 15:12:00,
2013-09-23 08:17:00,54.9,50.8,30.00,ENE,68,0.4,1.8,86,0.00,,,0.00,WUHU216HW,2013-09-23 15:17:00,
2013-09-23 08:22:00,55.3,51.1,30.00,NE,45,0.7,1.1,86,0.00,,,0.00,WUHU216HW,2013-09-23 15:22:00,
2013-09-23 08:27:00,55.6,51.1,30.00,West,270,1.3,1.6,85,0.00,,,0.00,WUHU216HW,2013-09-23 15:27:00,
2013-09-23 08:32:00,56.0,51.5,30.00,NNW,338,0.0,1.6,85,0.00,,,0.00,WUHU216HW,2013-09-23 15:32:00,
2013-09-23 08:37:00,56.3,51.5,30.00,NW,315,1.8,2.2,84,0.00,,,0.00,WUHU216HW,2013-09-23 15:37:00,
2013-09-23 08:42:00,56.7,52.2,30.00,SW,225,0.7,2.2,85,0.00,,,0.00,WUHU216HW,2013-09-23 15:42:00,
2013-09-23 08:47:00,57.2,52.4,30.00,WSW,248,1.8,1.8,84,0.00,,,0.00,WUHU216HW,2013-09-23 15:47:00,
2013-09-23 08:52:00,57.6,52.7,30.01,NNW,338,0.9,1.8,84,0.00,,,0.00,WUHU216HW,2013-09-23 15:52:00,
2013-09-23 08:57:00,58.0,52.8,30.01,West,270,1.3,1.8,83,0.00,,,0.00,WUHU216HW,2013-09-23 15:57:00,
2013-09-23 09:02:00,58.3,53.2,30.01,NW,315,1.3,1.8,83,0.00,,,0.00,WUHU216HW,2013-09-23 16:02:00,
2013-09-23 09:07:00,58.7,53.2,30.01,West,270,0.7,2.0,82,0.00,,,0.00,WUHU216HW,2013-09-23 16:07:00,
2013-09-23 09:12:00,58.9,53.1,30.01,North,0,0.0,2.0,81,0.00,,,0.00,WUHU216HW,2013-09-23 16:12:00,
2013-09-23 09:17:00,59.4,53.9,30.01,ESE,113,1.8,1.8,82,0.00,,,0.00,WUHU216HW,2013-09-23 16:17:00,
2013-09-23 09:22:00,60.1,54.4,30.01,SE,135,0.4,2.5,81,0.00,,,0.00,WUHU216HW,2013-09-23 16:22:00,
2013-09-23 09:27:00,60.5,54.7,30.01,ESE,113,1.3,2.5,81,0.00,,,0.00,WUHU216HW,2013-09-23 16:27:00,
2013-09-23 09:32:00,60.8,54.7,30.01,SSW,203,0.4,2.5,80,0.00,,,0.00,WUHU216HW,2013-09-23 16:32:00,
2013-09-23 09:37:00,61.2,54.7,30.01,SSE,158,1.8,2.7,79,0.00,,,0.00,WUHU216HW,2013-09-23 16:37:00,
2013-09-23 09:42:00,61.4,54.8,30.01,West,270,0.7,2.7,79,0.00,,,0.00,WUHU216HW,2013-09-23 16:42:00,
2013-09-23 09:47:00,61.7,54.8,30.01,NW,315,0.4,2.5,78,0.00,,,0.00,WUHU216HW,2013-09-23 16:47:00,
2013-09-23 09:52:00,61.9,54.6,30.01,North,0,0.7,1.3,77,0.00,,,0.00,WUHU216HW,2013-09-23 16:52:00,
2013-09-23 09:57:00,62.3,54.9,30.01,South,180,0.4,1.3,77,0.00,,,0.00,WUHU216HW,2013-09-23 16:57:00,
2013-09-23 10:02:00,62.6,54.9,30.01,WNW,293,1.8,1.8,76,0.00,,,0.00,WUHU216HW,2013-09-23 17:02:00,
2013-09-23 10:07:00,63.0,55.3,30.01,West,270,2.0,3.8,76,0.00,,,0.00,WUHU216HW,2013-09-23 17:07:00,
2013-09-23 10:12:00,63.2,54.7,30.01,NNE,23,0.9,3.8,74,0.00,,,0.00,WUHU216HW,2013-09-23 17:12:00,
2013-09-23 10:17:00,63.5,55.1,30.01,North,0,0.4,2.7,74,0.00,,,0.00,WUHU216HW,2013-09-23 17:17:00,
2013-09-23 10:22:00,63.7,55.3,30.01,North,0,0.0,2.0,74,0.00,,,0.00,WUHU216HW,2013-09-23 17:22:00,
2013-09-23 10:27:00,64.1,55.6,30.01,WNW,293,0.4,2.5,74,0.00,,,0.00,WUHU216HW,2013-09-23 17:27:00,
2013-09-23 10:32:00,64.4,56.0,30.01,SW,225,2.5,2.5,74,0.00,,,0.00,WUHU216HW,2013-09-23 17:32:00,
2013-09-23 10:37:00,65.2,56.3,30.01,SW,225,2.2,4.5,73,0.00,,,0.00,WUHU216HW,2013-09-23 17:37:00,
2013-09-23 10:42:00,65.5,56.3,30.01,North,0,2.9,4.5,72,0.00,,,0.00,WUHU216HW,2013-09-23 17:42:00,
2013-09-23 10:47:00,66.1,56.3,30.00,NNW,338,0.4,2.9,71,0.00,,,0.00,WUHU216HW,2013-09-23 17:47:00,
2013-09-23 10:52:00,66.2,55.4,30.00,NE,45,2.2,2.9,68,0.00,,,0.00,WUHU216HW,2013-09-23 17:52:00,
2013-09-23 10:57:00,66.6,56.1,30.00,West,270,2.2,4.7,69,0.00,,,0.00,WUHU216HW,2013-09-23 17:57:00,
2013-09-23 11:02:00,66.8,56.3,30.00,WNW,293,1.1,4.7,69,0.00,,,0.00,WUHU216HW,2013-09-23 18:02:00,
2013-09-23 11:07:00,67.3,56.0,30.00,SSW,203,0.9,4.0,67,0.00,,,0.00,WUHU216HW,2013-09-23 18:07:00,
2013-09-23 11:12:00,67.9,56.5,30.00,North,0,2.5,4.0,67,0.00,,,0.00,WUHU216HW,2013-09-23 18:12:00,
2013-09-23 11:17:00,68.2,56.0,30.00,North,0,3.8,4.7,65,0.00,,,0.00,WUHU216HW,2013-09-23 18:17:00,
2013-09-23 11:22:00,68.8,56.5,30.00,North,0,1.8,4.7,65,0.00,,,0.00,WUHU216HW,2013-09-23 18:22:00,
2013-09-23 11:27:00,69.1,56.8,29.99,WNW,293,1.8,2.9,65,0.00,,,0.00,WUHU216HW,2013-09-23 18:27:00,
2013-09-23 11:32:00,69.5,56.8,29.99,WSW,248,1.1,4.7,64,0.00,,,0.00,WUHU216HW,2013-09-23 18:32:00,
2013-09-23 11:37:00,69.8,56.7,29.99,WSW,248,2.2,4.7,63,0.00,,,0.00,WUHU216HW,2013-09-23 18:37:00,
2013-09-23 11:42:00,70.2,57.1,29.99,WNW,293,3.8,4.7,63,0.00,,,0.00,WUHU216HW,2013-09-23 18:42:00,
2013-09-23 11:47:00,70.7,56.7,29.99,North,0,4.0,4.3,61,0.00,,,0.00,WUHU216HW,2013-09-23 18:47:00,
2013-09-23 11:52:00,70.9,56.4,29.99,North,0,5.8,5.8,60,0.00,,,0.00,WUHU216HW,2013-09-23 18:52:00,
2013-09-23 11:57:00,71.5,56.9,29.99,NNE,23,0.4,5.8,60,0.00,,,0.00,WUHU216HW,2013-09-23 18:57:00,
2013-09-23 12:02:00,71.8,56.3,29.99,North,0,0.4,5.8,58,0.00,,,0.00,WUHU216HW,2013-09-23 19:02:00,
2013-09-23 12:07:00,72.2,56.5,29.98,NNW,338,1.8,4.0,58,0.00,,,0.00,WUHU216HW,2013-09-23 19:07:00,
2013-09-23 12:12:00,72.4,56.7,29.99,NW,315,2.5,3.8,58,0.00,,,0.00,WUHU216HW,2013-09-23 19:12:00,
2013-09-23 12:17:00,72.5,57.3,29.99,SSW,203,1.3,3.8,59,0.00,,,0.00,WUHU216HW,2013-09-23 19:17:00,
2013-09-23 12:22:00,72.7,56.5,29.99,NE,45,2.5,3.4,57,0.00,,,0.00,WUHU216HW,2013-09-23 19:22:00,
2013-09-23 12:27:00,73.1,57.3,29.99,WSW,248,3.4,5.4,58,0.00,,,0.00,WUHU216HW,2013-09-23 19:27:00,
2013-09-23 12:32:00,73.4,55.6,29.99,NNE,23,2.9,5.6,54,0.00,,,0.00,WUHU216HW,2013-09-23 19:32:00,
2013-09-23 12:37:00,73.6,55.8,29.98,NNW,338,1.3,5.6,54,0.00,,,0.00,WUHU216HW,2013-09-23 19:37:00,
2013-09-23 12:42:00,74.0,57.7,29.98,SSW,203,1.3,4.0,57,0.00,,,0.00,WUHU216HW,2013-09-23 19:42:00,
2013-09-23 12:47:00,74.3,57.6,29.98,WNW,293,3.6,3.8,56,0.00,,,0.00,WUHU216HW,2013-09-23 19:47:00,
2013-09-23 12:52:00,74.5,57.2,29.98,WSW,248,4.0,5.8,55,0.00,,,0.00,WUHU216HW,2013-09-23 19:52:00,
2013-09-23 12:57:00,75.2,57.4,29.98,West,270,2.2,5.8,54,0.00,,,0.00,WUHU216HW,2013-09-23 19:57:00,
2013-09-23 13:02:00,75.8,56.4,29.98,East,90,1.6,4.7,51,0.00,,,0.00,WUHU216HW,2013-09-23 20:02:00,
2013-09-23 13:07:00,76.0,56.6,29.98,North,0,2.5,3.1,51,0.00,,,0.00,WUHU216HW,2013-09-23 20:07:00,
2013-09-23 13:12:00,76.0,57.1,29.97,North,0,1.1,4.0,52,0.00,,,0.00,WUHU216HW,2013-09-23 20:12:00,
2013-09-23 13:17:00,76.1,57.2,29.97,West,270,2.2,5.4,52,0.00,,,0.00,WUHU216HW,2013-09-23 20:17:00,
2013-09-23 13:22:00,76.3,57.4,29.97,SE,135,1.1,5.4,52,0.00,,,0.00,WUHU216HW,2013-09-23 20:22:00,
2013-09-23 13:27:00,76.7,57.8,29.96,SE,135,2.2,4.0,52,0.00,,,0.00,WUHU216HW,2013-09-23 20:27:00,
2013-09-23 13:32:00,76.9,58.4,29.96,East,90,2.5,4.0,53,0.00,,,0.00,WUHU216HW,2013-09-23 20:32:00,
2013-09-23 13:37:00,76.9,57.9,29.96,ESE,113,1.8,3.4,52,0.00,,,0.00,WUHU216HW,2013-09-23 20:37:00,
2013-09-23 13:42:00,77.0,56.4,29.96,West,270,3.4,3.4,49,0.00,,,0.00,WUHU216HW,2013-09-23 20:42:00,
2013-09-23 13:47:00,77.4,55.5,29.96,NNW,338,2.5,5.6,47,0.00,,,0.00,WUHU216HW,2013-09-23 20:47:00,
2013-09-23 13:52:00,77.4,53.7,29.96,NE,45,2.7,6.7,44,0.00,,,0.00,WUHU216HW,2013-09-23 20:52:00,
2013-09-23 13:57:00,77.4,54.9,29.96,North,0,5.8,6.7,46,0.00,,,0.00,WUHU216HW,2013-09-23 20:57:00,
2013-09-23 14:02:00,77.6,54.5,29.96,NNE,23,6.0,6.0,45,0.00,,,0.00,WUHU216HW,2013-09-23 21:02:00,
2013-09-23 14:07:00,77.6,54.5,29.95,NNW,338,1.8,6.0,45,0.00,,,0.00,WUHU216HW,2013-09-23 21:07:00,
2013-09-23 14:12:00,77.8,56.5,29.95,WSW,248,2.7,6.0,48,0.00,,,0.00,WUHU216HW,2013-09-23 21:12:00,
2013-09-23 14:17:00,77.9,56.6,29.95,South,180,3.4,4.3,48,0.00,,,0.00,WUHU216HW,2013-09-23 21:17:00,
2013-09-23 14:22:00,77.9,56.6,29.95,ENE,68,1.3,4.3,48,0.00,,,0.00,WUHU216HW,2013-09-23 21:22:00,
2013-09-23 14:27:00,78.3,56.3,29.95,NW,315,2.7,4.0,47,0.00,,,0.00,WUHU216HW,2013-09-23 21:27:00,
2013-09-23 14:32:00,78.5,55.9,29.94,SSE,158,0.4,4.3,46,0.00,,,0.00,WUHU216HW,2013-09-23 21:32:00,
2013-09-23 14:37:00,78.5,56.5,29.94,WNW,293,0.4,4.3,47,0.00,,,0.00,WUHU216HW,2013-09-23 21:37:00,
2013-09-23 14:42:00,78.3,53.9,29.94,NE,45,3.6,5.4,43,0.00,,,0.00,WUHU216HW,2013-09-23 21:42:00,
2013-09-23 14:47:00,78.3,55.7,29.94,South,180,2.5,5.4,46,0.00,,,0.00,WUHU216HW,2013-09-23 21:47:00,
2013-09-23 14:52:00,78.5,55.9,29.94,ESE,113,3.4,4.7,46,0.00,,,0.00,WUHU216HW,2013-09-23 21:52:00,
2013-09-23 14:57:00,78.8,56.3,29.94,WSW,248,1.1,3.6,46,0.00,,,0.00,WUHU216HW,2013-09-23 21:57:00,
2013-09-23 15:02:00,78.8,55.0,29.94,NE,45,3.8,3.8,44,0.00,,,0.00,WUHU216HW,2013-09-23 22:02:00,
2013-09-23 15:07:00,79.0,54.5,29.94,NNE,23,5.1,5.1,43,0.00,,,0.00,WUHU216HW,2013-09-23 22:07:00,
2013-09-23 15:12:00,79.0,53.9,29.93,East,90,4.5,5.1,42,0.00,,,0.00,WUHU216HW,2013-09-23 22:12:00,
2013-09-23 15:17:00,79.4,56.7,29.94,WNW,293,2.7,5.1,46,0.00,,,0.00,WUHU216HW,2013-09-23 22:17:00,
2013-09-23 15:22:00,79.6,56.3,29.93,WSW,248,2.9,5.4,45,0.00,,,0.00,WUHU216HW,2013-09-23 22:22:00,
2013-09-23 15:27:00,79.7,57.1,29.93,WSW,248,2.2,5.4,46,0.00,,,0.00,WUHU216HW,2013-09-23 22:27:00,
2013-09-23 15:32:00,79.9,57.3,29.93,SW,225,3.6,6.0,46,0.00,,,0.00,WUHU216HW,2013-09-23 22:32:00,
2013-09-23 15:37:00,80.3,56.4,29.93,West,270,2.5,6.0,44,0.00,,,0.00,WUHU216HW,2013-09-23 22:37:00,
2013-09-23 15:42:00,80.3,56.4,29.93,WSW,248,3.6,4.5,44,0.00,,,0.00,WUHU216HW,2013-09-23 22:42:00,
2013-09-23 15:47:00,80.1,56.8,29.92,SSW,203,4.0,5.1,45,0.00,,,0.00,WUHU216HW,2013-09-23 22:47:00,
2013-09-23 15:52:00,80.1,56.8,29.92,SSW,203,2.2,5.1,45,0.00,,,0.00,WUHU216HW,2013-09-23 22:52:00,
2013-09-23 15:57:00,80.1,56.8,29.92,West,270,0.7,4.7,45,0.00,,,0.00,WUHU216HW,2013-09-23 22:57:00,
2013-09-23 16:02:00,80.1,56.8,29.92,North,0,1.1,4.7,45,0.00,,,0.00,WUHU216HW,2013-09-23 23:02:00,
2013-09-23 16:07:00,80.1,54.3,29.92,NE,45,2.7,4.0,41,0.00,,,0.00,WUHU216HW,2013-09-23 23:07:00,
2013-09-23 16:12:00,80.1,54.9,29.92,NNE,23,1.8,4.0,42,0.00,,,0.00,WUHU216HW,2013-09-23 23:12:00,
2013-09-23 16:17:00,80.1,56.2,29.92,SSE,158,1.8,2.7,44,0.00,,,0.00,WUHU216HW,2013-09-23 23:17:00,
2013-09-23 16:22:00,79.9,54.7,29.92,NNW,338,0.7,2.5,42,0.00,,,0.00,WUHU216HW,2013-09-23 23:22:00,
2013-09-23 16:27:00,80.1,55.5,29.92,NNW,338,1.8,6.3,43,0.00,,,0.00,WUHU216HW,2013-09-23 23:27:00,
2013-09-23 16:32:00,80.1,54.3,29.92,North,0,3.8,6.3,41,0.00,,,0.00,WUHU216HW,2013-09-23 23:32:00,
2013-09-23 16:37:00,80.1,54.9,29.91,NNE,23,0.4,5.6,42,0.00,,,0.00,WUHU216HW,2013-09-23 23:37:00,
2013-09-23 16:42:00,80.1,55.5,29.91,WSW,248,3.4,3.8,43,0.00,,,0.00,WUHU216HW,2013-09-23 23:42:00,
2013-09-23 16:47:00,80.1,56.2,29.91,SW,225,2.5,5.4,44,0.00,,,0.00,WUHU216HW,2013-09-23 23:47:00,
2013-09-23 16:52:00,80.1,56.2,29.91,SSE,158,0.0,5.4,44,0.00,,,0.00,WUHU216HW,2013-09-23 23:52:00,
2013-09-23 16:57:00,80.1,54.9,29.91,West,270,1.3,3.6,42,0.00,,,0.00,WUHU216HW,2013-09-23 23:57:00,
2013-09-23 17:02:00,80.1,56.2,29.91,West,270,4.7,4.7,44,0.00,,,0.00,WUHU216HW,2013-09-24 00:02:00,
2013-09-23 17:07:00,80.1,56.2,29.91,WSW,248,2.9,4.7,44,0.00,,,0.00,WUHU216HW,2013-09-24 00:07:00,
2013-09-23 17:12:00,80.1,55.5,29.91,West,270,4.0,6.0,43,0.00,,,0.00,WUHU216HW,2013-09-24 00:12:00,
2013-09-23 17:17:00,80.1,56.2,29.91,WNW,293,7.6,8.5,44,0.00,,,0.00,WUHU216HW,2013-09-24 00:17:00,
2013-09-23 17:22:00,79.9,56.0,29.91,West,270,7.2,9.6,44,0.00,,,0.00,WUHU216HW,2013-09-24 00:22:00,
2013-09-23 17:27:00,79.7,55.8,29.91,WSW,248,5.4,9.6,44,0.00,,,0.00,WUHU216HW,2013-09-24 00:27:00,
2013-09-23 17:32:00,79.6,56.3,29.91,West,270,7.6,8.7,45,0.00,,,0.00,WUHU216HW,2013-09-24 00:32:00,
2013-09-23 17:37:00,79.2,56.5,29.91,WSW,248,3.4,8.7,46,0.00,,,0.00,WUHU216HW,2013-09-24 00:37:00,
2013-09-23 17:42:00,79.0,57.0,29.91,WNW,293,8.5,8.7,47,0.00,,,0.00,WUHU216HW,2013-09-24 00:42:00,
2013-09-23 17:47:00,78.8,56.9,29.91,WNW,293,6.5,9.6,47,0.00,,,0.00,WUHU216HW,2013-09-24 00:47:00,
2013-09-23 17:52:00,79.0,57.6,29.91,WNW,293,6.3,9.6,48,0.00,,,0.00,WUHU216HW,2013-09-24 00:52:00,
2013-09-23 17:57:00,78.8,57.4,29.91,WNW,293,3.6,9.2,48,0.00,,,0.00,WUHU216HW,2013-09-24 00:57:00,
2013-09-23 18:02:00,78.5,57.2,29.91,NW,315,4.5,8.5,48,0.00,,,0.00,WUHU216HW,2013-09-24 01:02:00,
2013-09-23 18:07:00,78.1,57.4,29.91,WNW,293,7.2,8.5,49,0.00,,,0.00,WUHU216HW,2013-09-24 01:07:00,
2013-09-23 18:12:00,77.4,56.8,29.91,West,270,8.9,8.9,49,0.00,,,0.00,WUHU216HW,2013-09-24 01:12:00,
2013-09-23 18:17:00,77.0,57.1,29.91,WNW,293,5.1,8.9,50,0.00,,,0.00,WUHU216HW,2013-09-24 01:17:00,
2013-09-23 18:22:00,76.7,57.2,29.91,WSW,248,5.8,8.7,51,0.00,,,0.00,WUHU216HW,2013-09-24 01:22:00,
2013-09-23 18:27:00,76.3,56.9,29.91,WSW,248,4.0,8.1,51,0.00,,,0.00,WUHU216HW,2013-09-24 01:27:00,
2013-09-23 18:32:00,76.0,57.1,29.91,WSW,248,3.6,7.6,52,0.00,,,0.00,WUHU216HW,2013-09-24 01:32:00,
2013-09-23 18:37:00,75.4,57.2,29.91,WSW,248,2.2,8.7,53,0.00,,,0.00,WUHU216HW,2013-09-24 01:37:00,
2013-09-23 18:42:00,75.2,57.4,29.92,SW,225,5.4,8.7,54,0.00,,,0.00,WUHU216HW,2013-09-24 01:42:00,
2013-09-23 18:47:00,74.9,57.6,29.92,SSW,203,2.7,6.9,55,0.00,,,0.00,WUHU216HW,2013-09-24 01:47:00,
2013-09-23 18:52:00,74.5,57.2,29.92,SW,225,4.5,6.9,55,0.00,,,0.00,WUHU216HW,2013-09-24 01:52:00,
2013-09-23 18:57:00,74.0,57.3,29.92,SW,225,3.4,5.8,56,0.00,,,0.00,WUHU216HW,2013-09-24 01:57:00,
2013-09-23 19:02:00,73.4,57.2,29.92,WSW,248,5.8,6.7,57,0.00,,,0.00,WUHU216HW,2013-09-24 02:02:00,
2013-09-23 19:07:00,72.9,57.2,29.92,SW,225,2.7,6.7,58,0.00,,,0.00,WUHU216HW,2013-09-24 02:07:00,
2013-09-23 19:12:00,72.5,57.3,29.93,SW,225,4.5,6.0,59,0.00,,,0.00,WUHU216HW,2013-09-24 02:12:00,
2013-09-23 19:17:00,72.2,57.1,29.92,SW,225,3.1,6.0,59,0.00,,,0.00,WUHU216HW,2013-09-24 02:17:00,
2013-09-23 19:22:00,71.6,57.1,29.92,WSW,248,1.6,5.1,60,0.00,,,0.00,WUHU216HW,2013-09-24 02:22:00,
2013-09-23 19:27:00,71.3,57.2,29.93,SSW,203,2.5,4.0,61,0.00,,,0.00,WUHU216HW,2013-09-24 02:27:00,
2013-09-23 19:32:00,71.1,57.0,29.93,SSW,203,2.7,4.0,61,0.00,,,0.00,WUHU216HW,2013-09-24 02:32:00,
2013-09-23 19:37:00,70.7,56.7,29.93,SW,225,2.0,4.0,61,0.00,,,0.00,WUHU216HW,2013-09-24 02:37:00,
2013-09-23 19:42:00,70.4,56.8,29.93,SSW,203,2.9,3.4,62,0.00,,,0.00,WUHU216HW,2013-09-24 02:42:00,
2013-09-23 19:47:00,70.0,57.2,29.93,SW,225,3.8,4.7,64,0.00,,,0.00,WUHU216HW,2013-09-24 02:47:00,
2013-09-23 19:52:00,69.7,56.5,29.93,SSW,203,2.5,4.7,63,0.00,,,0.00,WUHU216HW,2013-09-24 02:52:00,
2013-09-23 19:57:00,69.5,56.4,29.94,SW,225,1.8,3.8,63,0.00,,,0.00,WUHU216HW,2013-09-24 02:57:00,
2013-09-23 20:02:00,68.9,56.3,29.94,SSW,203,2.2,3.1,64,0.00,,,0.00,WUHU216HW,2013-09-24 03:02:00,
2013-09-23 20:07:00,68.8,56.1,29.94,SSW,203,1.8,2.9,64,0.00,,,0.00,WUHU216HW,2013-09-24 03:07:00,
2013-09-23 20:12:00,68.4,55.7,29.94,SSW,203,0.4,2.2,64,0.00,,,0.00,WUHU216HW,2013-09-24 03:12:00,
2013-09-23 20:17:00,68.0,55.8,29.94,SSE,158,2.0,2.2,65,0.00,,,0.00,WUHU216HW,2013-09-24 03:17:00,
2013-09-23 20:22:00,67.7,55.4,29.94,SW,225,2.0,2.2,65,0.00,,,0.00,WUHU216HW,2013-09-24 03:22:00,
2013-09-23 20:27:00,67.5,55.7,29.94,SW,225,1.3,2.5,66,0.00,,,0.00,WUHU216HW,2013-09-24 03:27:00,
2013-09-23 20:32:00,67.1,55.4,29.94,WSW,248,1.1,2.5,66,0.00,,,0.00,WUHU216HW,2013-09-24 03:32:00,
2013-09-23 20:37:00,67.0,55.2,29.94,SW,225,1.1,1.8,66,0.00,,,0.00,WUHU216HW,2013-09-24 03:37:00,
2013-09-23 20:42:00,66.6,55.3,29.95,WSW,248,1.1,2.2,67,0.00,,,0.00,WUHU216HW,2013-09-24 03:42:00,
2013-09-23 20:47:00,66.4,55.5,29.95,WSW,248,1.8,2.5,68,0.00,,,0.00,WUHU216HW,2013-09-24 03:47:00,
2013-09-23 20:52:00,66.2,55.4,29.95,SW,225,1.1,2.5,68,0.00,,,0.00,WUHU216HW,2013-09-24 03:52:00,
2013-09-23 20:57:00,66.1,55.6,29.95,WSW,248,3.4,3.4,69,0.00,,,0.00,WUHU216HW,2013-09-24 03:57:00,
2013-09-23 21:01:00,65.9,55.8,29.95,SW,225,1.3,3.8,70,0.00,,,0.00,WUHU216HW,2013-09-24 04:01:00,
2013-09-23 21:06:00,65.9,55.8,29.95,SW,225,0.9,3.8,70,0.00,,,0.00,WUHU216HW,2013-09-24 04:06:00,
2013-09-23 21:11:00,65.7,55.7,29.95,SW,225,1.6,3.4,70,0.00,,,0.00,WUHU216HW,2013-09-24 04:11:00,
2013-09-23 21:16:00,65.5,55.5,29.95,SW,225,1.1,2.5,70,0.00,,,0.00,WUHU216HW,2013-09-24 04:16:00,
2013-09-23 21:21:00,65.3,55.7,29.95,WSW,248,1.1,2.2,71,0.00,,,0.00,WUHU216HW,2013-09-24 04:21:00,
2013-09-23 21:26:00,65.2,55.5,29.95,SW,225,1.8,2.7,71,0.00,,,0.00,WUHU216HW,2013-09-24 04:26:00,
2013-09-23 21:31:00,65.2,55.9,29.95,SW,225,2.9,2.9,72,0.00,,,0.00,WUHU216HW,2013-09-24 04:31:00,
2013-09-23 21:36:00,65.0,55.8,29.95,SW,225,1.1,3.1,72,0.00,,,0.00,WUHU216HW,2013-09-24 04:36:00,
2013-09-23 21:41:00,64.8,56.0,29.95,WSW,248,2.2,3.4,73,0.00,,,0.00,WUHU216HW,2013-09-24 04:41:00,
2013-09-23 21:46:00,64.6,55.8,29.95,SW,225,3.1,3.4,73,0.00,,,0.00,WUHU216HW,2013-09-24 04:46:00,
2013-09-23 21:51:00,64.4,56.0,29.95,SSW,203,3.6,3.6,74,0.00,,,0.00,WUHU216HW,2013-09-24 04:51:00,
2013-09-23 21:56:00,64.4,56.0,29.95,SW,225,1.8,3.6,74,0.00,,,0.00,WUHU216HW,2013-09-24 04:56:00,
2013-09-23 22:01:00,64.3,55.8,29.95,SSW,203,2.7,3.8,74,0.00,,,0.00,WUHU216HW,2013-09-24 05:01:00,
2013-09-23 22:06:00,64.3,55.8,29.95,West,270,3.4,4.7,74,0.00,,,0.00,WUHU216HW,2013-09-24 05:06:00,
2013-09-23 22:11:00,64.1,56.3,29.95,SW,225,2.9,7.4,76,0.00,,,0.00,WUHU216HW,2013-09-24 05:11:00,
2013-09-23 22:16:00,64.1,56.7,29.95,WSW,248,5.1,7.4,77,0.00,,,0.00,WUHU216HW,2013-09-24 05:16:00,
2013-09-23 22:21:00,63.9,56.5,29.95,SSW,203,2.9,5.4,77,0.00,,,0.00,WUHU216HW,2013-09-24 05:21:00,
2013-09-23 22:26:00,63.7,56.3,29.95,SW,225,3.4,4.9,77,0.00,,,0.00,WUHU216HW,2013-09-24 05:26:00,
2013-09-23 22:31:00,63.7,56.7,29.95,SW,225,2.0,5.4,78,0.00,,,0.00,WUHU216HW,2013-09-24 05:31:00,
2013-09-23 22:36:00,63.5,56.5,29.95,WSW,248,4.9,5.6,78,0.00,,,0.00,WUHU216HW,2013-09-24 05:36:00,
2013-09-23 22:41:00,63.4,56.3,29.95,West,270,2.7,5.6,78,0.00,,,0.00,WUHU216HW,2013-09-24 05:41:00,
2013-09-23 22:46:00,63.2,56.2,29.95,WSW,248,3.1,5.4,78,0.00,,,0.00,WUHU216HW,2013-09-24 05:46:00,
2013-09-23 22:51:00,63.2,56.5,29.95,WSW,248,5.1,6.9,79,0.00,,,0.00,WUHU216HW,2013-09-24 05:51:00,
2013-09-23 22:56:00,63.0,56.3,29.95,SW,225,2.7,6.9,79,0.00,,,0.00,WUHU216HW,2013-09-24 05:56:00,
2013-09-23 23:01:00,63.0,56.3,29.95,SW,225,3.4,5.1,79,0.00,,,0.00,WUHU216HW,2013-09-24 06:01:00,
2013-09-23 23:06:00,62.8,56.2,29.95,WSW,248,2.5,4.5,79,0.00,,,0.00,WUHU216HW,2013-09-24 06:06:00,
2013-09-23 23:11:00,62.8,56.5,29.95,WSW,248,2.7,4.5,80,0.00,,,0.00,WUHU216HW,2013-09-24 06:11:00,
2013-09-23 23:16:00,62.6,56.0,29.95,SSW,203,2.5,4.3,79,0.00,,,0.00,WUHU216HW,2013-09-24 06:16:00,
2013-09-23 23:21:00,62.6,56.0,29.95,West,270,2.5,3.1,79,0.00,,,0.00,WUHU216HW,2013-09-24 06:21:00,
2013-09-23 23:26:00,62.5,55.8,29.95,WSW,248,1.1,3.8,79,0.00,,,0.00,WUHU216HW,2013-09-24 06:26:00,
2013-09-23 23:31:00,62.3,55.6,29.95,WSW,248,2.2,4.3,79,0.00,,,0.00,WUHU216HW,2013-09-24 06:31:00,
2013-09-23 23:36:00,62.3,56.0,29.95,SSW,203,1.3,4.3,80,0.00,,,0.00,WUHU216HW,2013-09-24 06:36:00,
2013-09-23 23:41:00,62.1,55.9,29.95,SW,225,1.8,4.3,80,0.00,,,0.00,WUHU216HW,2013-09-24 06:41:00,
2013-09-23 23:46:00,61.9,55.7,29.94,SW,225,1.8,3.1,80,0.00,,,0.00,WUHU216HW,2013-09-24 06:46:00,
2013-09-23 23:51:00,61.9,55.7,29.94,SW,225,2.9,3.1,80,0.00,,,0.00,WUHU216HW,2013-09-24 06:51:00,
2013-09-23 23:56:00,61.7,55.5,29.94,WSW,248,1.8,3.4,80,0.00,,,0.00,WUHU216HW,2013-09-24 06:56:00,